sensor_id;sensor_type;location;lat;lon;timestamp;P1;P2;P0
55549;PMS7003;41397;49.972;18.944;2022-07-23T00:03:48;38;33;24
55549;PMS7003;41397;49.972;18.944;2022-07-23T00:09:02;32;29;21
55549;PMS7003;41397;49.972;18.944;2022-07-23T00:14:16;28;26;21
55549;PMS7003;41397;49.972;18.944;2022-07-23T00:19:29;27;26;20
55549;PMS7003;41397;49.972;18.944;2022-07-23T00:20:08;22;22;19
55549;PMS7003;41397;49.972;18.944;2022-07-23T00:24:43;25;25;19
55549;PMS7003;41397;49.972;18.944;2022-07-23T00:29:56;25;24;19
55549;PMS7003;41397;49.972;18.944;2022-07-23T00:35:10;25;24;14
55549;PMS7003;41397;49.972;18.944;2022-07-23T00:40:24;29;27;18
55549;PMS7003;41397;49.972;18.944;2022-07-23T00:45:38;40;34;21
55549;PMS7003;41397;49.972;18.944;2022-07-23T00:50:22;32;29;21
55549;PMS7003;41397;49.972;18.944;2022-07-23T00:50:53;29;28;21
55549;PMS7003;41397;49.972;18.944;2022-07-23T00:56:07;41;34;23
55549;PMS7003;41397;49.972;18.944;2022-07-23T01:01:20;23;23;19
55549;PMS7003;41397;49.972;18.944;2022-07-23T01:06:38;34;31;21
55549;PMS7003;41397;49.972;18.944;2022-07-23T01:11:54;36;32;22
55549;PMS7003;41397;49.972;18.944;2022-07-23T01:17:11;40;35;23
55549;PMS7003;41397;49.972;18.944;2022-07-23T01:20:36;34;30;20
55549;PMS7003;41397;49.972;18.944;2022-07-23T01:22:28;36;32;23
55549;PMS7003;41397;49.972;18.944;2022-07-23T01:27:43;32;29;20
55549;PMS7003;41397;49.972;18.944;2022-07-23T01:32:57;26;26;15
55549;PMS7003;41397;49.972;18.944;2022-07-23T01:38:10;31;29;20
55549;PMS7003;41397;49.972;18.944;2022-07-23T01:43:24;22;21;15
55549;PMS7003;41397;49.972;18.944;2022-07-23T01:48:37;36;31;23
55549;PMS7003;41397;49.972;18.944;2022-07-23T01:50:49;33;30;21
55549;PMS7003;41397;49.972;18.944;2022-07-23T01:53:51;42;36;26
55549;PMS7003;41397;49.972;18.944;2022-07-23T01:59:04;37;33;20
55549;PMS7003;41397;49.972;18.944;2022-07-23T02:04:18;26;26;16
55549;PMS7003;41397;49.972;18.944;2022-07-23T02:09:33;36;32;22
55549;PMS7003;41397;49.972;18.944;2022-07-23T02:14:48;25;24;17
55549;PMS7003;41397;49.972;18.944;2022-07-23T02:20:01;29;28;18
55549;PMS7003;41397;49.972;18.944;2022-07-23T02:21:03;28;27;20
55549;PMS7003;41397;49.972;18.944;2022-07-23T02:25:15;33;30;21
55549;PMS7003;41397;49.972;18.944;2022-07-23T02:30:29;33;30;20
55549;PMS7003;41397;49.972;18.944;2022-07-23T02:35:43;33;30;22
55549;PMS7003;41397;49.972;18.944;2022-07-23T02:40:59;27;26;15
55549;PMS7003;41397;49.972;18.944;2022-07-23T02:46:13;34;30;18
55549;PMS7003;41397;49.972;18.944;2022-07-23T02:51:17;30;28;19
55549;PMS7003;41397;49.972;18.944;2022-07-23T02:51:31;30;28;19
55549;PMS7003;41397;49.972;18.944;2022-07-23T02:56:44;25;24;20
55549;PMS7003;41397;49.972;18.944;2022-07-23T03:01:58;32;29;22
55549;PMS7003;41397;49.972;18.944;2022-07-23T03:07:12;39;34;22
55549;PMS7003;41397;49.972;18.944;2022-07-23T03:12:26;40;35;22
55549;PMS7003;41397;49.972;18.944;2022-07-23T03:17:39;42;37;25
55549;PMS7003;41397;49.972;18.944;2022-07-23T03:21:31;31;29;21
55549;PMS7003;41397;49.972;18.944;2022-07-23T03:22:53;32;29;20
55549;PMS7003;41397;49.972;18.944;2022-07-23T03:28:07;28;26;20
55549;PMS7003;41397;49.972;18.944;2022-07-23T03:33:21;27;26;20
55549;PMS7003;41397;49.972;18.944;2022-07-23T03:44:22;26;25;20
55549;PMS7003;41397;49.972;18.944;2022-07-23T03:49:36;18;18;15
55549;PMS7003;41397;49.972;18.944;2022-07-23T03:51:44;38;33;25
55549;PMS7003;41397;49.972;18.944;2022-07-23T03:54:50;25;24;21
55549;PMS7003;41397;49.972;18.944;2022-07-23T04:00:04;21;21;18
55549;PMS7003;41397;49.972;18.944;2022-07-23T04:05:22;25;25;18
55549;PMS7003;41397;49.972;18.944;2022-07-23T04:10:36;36;32;20
55549;PMS7003;41397;49.972;18.944;2022-07-23T04:15:49;39;33;20
55549;PMS7003;41397;49.972;18.944;2022-07-23T04:21:03;23;23;18
55549;PMS7003;41397;49.972;18.944;2022-07-23T04:21:58;26;25;19
55549;PMS7003;41397;49.972;18.944;2022-07-23T04:26:17;20;20;17
55549;PMS7003;41397;49.972;18.944;2022-07-23T04:31:31;22;22;19
55549;PMS7003;41397;49.972;18.944;2022-07-23T04:36:45;24;23;16
55549;PMS7003;41397;49.972;18.944;2022-07-23T04:41:58;26;25;20
55549;PMS7003;41397;49.972;18.944;2022-07-23T04:47:12;30;28;21
55549;PMS7003;41397;49.972;18.944;2022-07-23T04:52:12;20;20;18
55549;PMS7003;41397;49.972;18.944;2022-07-23T04:52:29;20;20;15
55549;PMS7003;41397;49.972;18.944;2022-07-23T04:57:42;22;22;17
55549;PMS7003;41397;49.972;18.944;2022-07-23T05:02:56;21;21;16
55549;PMS7003;41397;49.972;18.944;2022-07-23T05:08:10;31;29;24
55549;PMS7003;41397;49.972;18.944;2022-07-23T05:13:23;23;23;16
55549;PMS7003;41397;49.972;18.944;2022-07-23T05:18:37;19;19;16
55549;PMS7003;41397;49.972;18.944;2022-07-23T05:22:25;20;20;14
55549;PMS7003;41397;49.972;18.944;2022-07-23T05:23:51;19;19;15
55549;PMS7003;41397;49.972;18.944;2022-07-23T05:29:04;22;22;18
55549;PMS7003;41397;49.972;18.944;2022-07-23T05:34:18;17;17;12
55549;PMS7003;41397;49.972;18.944;2022-07-23T05:39:32;17;17;13
55549;PMS7003;41397;49.972;18.944;2022-07-23T05:44:47;18;18;13
55549;PMS7003;41397;49.972;18.944;2022-07-23T05:50:01;24;24;20
55549;PMS7003;41397;49.972;18.944;2022-07-23T05:52:40;20;20;17
55549;PMS7003;41397;49.972;18.944;2022-07-23T05:55:17;26;26;18
55549;PMS7003;41397;49.972;18.944;2022-07-23T06:00:31;17;17;16
55549;PMS7003;41397;49.972;18.944;2022-07-23T06:05:45;17;17;14
55549;PMS7003;41397;49.972;18.944;2022-07-23T06:10:59;14;14;14
55549;PMS7003;41397;49.972;18.944;2022-07-23T06:16:13;25;25;19
55549;PMS7003;41397;49.972;18.944;2022-07-23T06:21:30;24;24;18
55549;PMS7003;41397;49.972;18.944;2022-07-23T06:22:54;20;20;14
55549;PMS7003;41397;49.972;18.944;2022-07-23T06:26:47;28;26;18
55549;PMS7003;41397;49.972;18.944;2022-07-23T06:32:04;16;16;13
55549;PMS7003;41397;49.972;18.944;2022-07-23T06:37:21;18;18;12
55549;PMS7003;41397;49.972;18.944;2022-07-23T06:42:38;22;22;14
55549;PMS7003;41397;49.972;18.944;2022-07-23T06:47:55;12;12;10
55549;PMS7003;41397;49.972;18.944;2022-07-23T06:53:08;21;21;16
55549;PMS7003;41397;49.972;18.944;2022-07-23T06:53:21;21;21;16
55549;PMS7003;41397;49.972;18.944;2022-07-23T06:58:35;20;20;16
55549;PMS7003;41397;49.972;18.944;2022-07-23T07:03:49;25;25;20
55549;PMS7003;41397;49.972;18.944;2022-07-23T07:09:04;16;16;15
55549;PMS7003;41397;49.972;18.944;2022-07-23T07:14:17;12;12;10
55549;PMS7003;41397;49.972;18.944;2022-07-23T07:19:31;28;20;16
55549;PMS7003;41397;49.972;18.944;2022-07-23T07:23:22;21;21;17
55549;PMS7003;41397;49.972;18.944;2022-07-23T07:24:45;15;15;11
55549;PMS7003;41397;49.972;18.944;2022-07-23T07:29:58;21;21;15
55549;PMS7003;41397;49.972;18.944;2022-07-23T07:35:12;19;19;17
55549;PMS7003;41397;49.972;18.944;2022-07-23T07:40:26;11;11;11
55549;PMS7003;41397;49.972;18.944;2022-07-23T07:45:40;20;20;16
55549;PMS7003;41397;49.972;18.944;2022-07-23T07:50:54;16;16;13
55549;PMS7003;41397;49.972;18.944;2022-07-23T07:53:36;19;19;15
55549;PMS7003;41397;49.972;18.944;2022-07-23T07:56:07;19;19;17
55549;PMS7003;41397;49.972;18.944;2022-07-23T08:01:21;23;23;19
55549;PMS7003;41397;49.972;18.944;2022-07-23T08:06:35;26;26;21
55549;PMS7003;41397;49.972;18.944;2022-07-23T08:11:51;24;24;19
55549;PMS7003;41397;49.972;18.944;2022-07-23T08:17:11;20;20;14
55549;PMS7003;41397;49.972;18.944;2022-07-23T08:22:25;20;20;13
55549;PMS7003;41397;49.972;18.944;2022-07-23T08:23:49;21;21;16
55549;PMS7003;41397;49.972;18.944;2022-07-23T08:27:43;22;22;15
55549;PMS7003;41397;49.972;18.944;2022-07-23T08:33:00;21;21;18
55549;PMS7003;41397;49.972;18.944;2022-07-23T08:38:17;20;20;18
55549;PMS7003;41397;49.972;18.944;2022-07-23T08:43:33;19;19;18
55549;PMS7003;41397;49.972;18.944;2022-07-23T08:48:50;26;25;19
55549;PMS7003;41397;49.972;18.944;2022-07-23T08:54:03;16;16;13
55549;PMS7003;41397;49.972;18.944;2022-07-23T08:54:17;16;16;13
55549;PMS7003;41397;49.972;18.944;2022-07-23T08:59:31;16;16;13
55549;PMS7003;41397;49.972;18.944;2022-07-23T09:04:45;17;17;13
55549;PMS7003;41397;49.972;18.944;2022-07-23T09:10:08;22;22;16
55549;PMS7003;41397;49.972;18.944;2022-07-23T09:15:23;19;19;14
55549;PMS7003;41397;49.972;18.944;2022-07-23T09:20:37;16;16;11
55549;PMS7003;41397;49.972;18.944;2022-07-23T09:24:17;22;22;18
55549;PMS7003;41397;49.972;18.944;2022-07-23T09:25:50;13;13;12
55549;PMS7003;41397;49.972;18.944;2022-07-23T09:31:04;13;13;12
55549;PMS7003;41397;49.972;18.944;2022-07-23T09:41:43;10;10;8
55549;PMS7003;41397;49.972;18.944;2022-07-23T09:46:59;7;7;7
55549;PMS7003;41397;49.972;18.944;2022-07-23T09:52:14;13;13;12
55549;PMS7003;41397;49.972;18.944;2022-07-23T09:54:37;16;16;14
55549;PMS7003;41397;49.972;18.944;2022-07-23T09:57:37;13;13;9
55549;PMS7003;41397;49.972;18.944;2022-07-23T10:02:59;11;11;9
55549;PMS7003;41397;49.972;18.944;2022-07-23T10:08:14;16;16;14
55549;PMS7003;41397;49.972;18.944;2022-07-23T10:13:31;14;14;13
55549;PMS7003;41397;49.972;18.944;2022-07-23T10:18:57;13;13;11
55549;PMS7003;41397;49.972;18.944;2022-07-23T10:40:28;11;11;10
55549;PMS7003;41397;49.972;18.944;2022-07-23T10:45:44;10;10;10
55549;PMS7003;41397;49.972;18.944;2022-07-23T11:01:51;7;7;5
55549;PMS7003;41397;49.972;18.944;2022-07-23T11:07:07;15;15;13
55549;PMS7003;41397;49.972;18.944;2022-07-23T11:23:10;9;9;8
55549;PMS7003;41397;49.972;18.944;2022-07-23T11:25:46;13;13;12
55549;PMS7003;41397;49.972;18.944;2022-07-23T11:28:24;10;10;9
55549;PMS7003;41397;49.972;18.944;2022-07-23T11:33:40;14;14;12
55549;PMS7003;41397;49.972;18.944;2022-07-23T11:38:54;15;15;11
55549;PMS7003;41397;49.972;18.944;2022-07-23T11:44:31;11;11;9
55549;PMS7003;41397;49.972;18.944;2022-07-23T11:49:34;19;19;13
55549;PMS7003;41397;49.972;18.944;2022-07-23T11:54:55;11;11;10
55549;PMS7003;41397;49.972;18.944;2022-07-23T12:00:11;11;11;11
55549;PMS7003;41397;49.972;18.944;2022-07-23T12:05:28;15;15;12
55549;PMS7003;41397;49.972;18.944;2022-07-23T12:10:48;13;13;9
55549;PMS7003;41397;49.972;18.944;2022-07-23T12:16:02;10;10;10
55549;PMS7003;41397;49.972;18.944;2022-07-23T12:21:17;10;10;10
55549;PMS7003;41397;49.972;18.944;2022-07-23T12:26:22;13;13;12
55549;PMS7003;41397;49.972;18.944;2022-07-23T12:26:36;13;13;12
55549;PMS7003;41397;49.972;18.944;2022-07-23T12:31:50;15;15;14
55549;PMS7003;41397;49.972;18.944;2022-07-23T12:37:04;12;12;11
55549;PMS7003;41397;49.972;18.944;2022-07-23T12:42:18;17;17;13
55549;PMS7003;41397;49.972;18.944;2022-07-23T12:47:54;12;12;12
55549;PMS7003;41397;49.972;18.944;2022-07-23T12:56:39;14;14;11
55549;PMS7003;41397;49.972;18.944;2022-07-23T12:58:21;16;16;12
55549;PMS7003;41397;49.972;18.944;2022-07-23T13:03:36;13;13;12
55549;PMS7003;41397;49.972;18.944;2022-07-23T13:08:51;14;14;13
55549;PMS7003;41397;49.972;18.944;2022-07-23T13:14:05;19;19;14
55549;PMS7003;41397;49.972;18.944;2022-07-23T13:19:19;14;14;12
55549;PMS7003;41397;49.972;18.944;2022-07-23T13:24:36;16;16;14
55549;PMS7003;41397;49.972;18.944;2022-07-23T13:26:57;17;17;17
55549;PMS7003;41397;49.972;18.944;2022-07-23T13:29:50;14;14;13
55549;PMS7003;41397;49.972;18.944;2022-07-23T13:35:03;10;10;10
55549;PMS7003;41397;49.972;18.944;2022-07-23T13:40:20;26;25;20
55549;PMS7003;41397;49.972;18.944;2022-07-23T13:45:37;18;18;15
55549;PMS7003;41397;49.972;18.944;2022-07-23T13:50:54;23;23;17
55549;PMS7003;41397;49.972;18.944;2022-07-23T13:56:11;22;22;14
55549;PMS7003;41397;49.972;18.944;2022-07-23T13:57:16;6;6;6
55549;PMS7003;41397;49.972;18.944;2022-07-23T14:01:25;13;13;11
55549;PMS7003;41397;49.972;18.944;2022-07-23T14:06:38;13;13;11
55549;PMS7003;41397;49.972;18.944;2022-07-23T14:11:52;12;12;11
55549;PMS7003;41397;49.972;18.944;2022-07-23T14:17:06;19;19;15
55549;PMS7003;41397;49.972;18.944;2022-07-23T14:22:20;16;16;15
55549;PMS7003;41397;49.972;18.944;2022-07-23T14:27:30;15;15;12
55549;PMS7003;41397;49.972;18.944;2022-07-23T14:27:44;15;15;12
55549;PMS7003;41397;49.972;18.944;2022-07-23T14:32:58;23;23;13
55549;PMS7003;41397;49.972;18.944;2022-07-23T14:38:11;21;21;18
55549;PMS7003;41397;49.972;18.944;2022-07-23T14:43:26;15;15;14
55549;PMS7003;41397;49.972;18.944;2022-07-23T14:48:40;21;21;16
55549;PMS7003;41397;49.972;18.944;2022-07-23T14:53:54;20;20;16
55549;PMS7003;41397;49.972;18.944;2022-07-23T14:57:44;17;17;15
55549;PMS7003;41397;49.972;18.944;2022-07-23T14:59:07;17;17;12
55549;PMS7003;41397;49.972;18.944;2022-07-23T15:04:21;12;12;11
55549;PMS7003;41397;49.972;18.944;2022-07-23T15:09:34;15;15;11
55549;PMS7003;41397;49.972;18.944;2022-07-23T15:14:48;19;19;16
55549;PMS7003;41397;49.972;18.944;2022-07-23T15:20:02;11;11;11
55549;PMS7003;41397;49.972;18.944;2022-07-23T15:25:16;26;25;19
55549;PMS7003;41397;49.972;18.944;2022-07-23T15:27:58;18;18;14
55549;PMS7003;41397;49.972;18.944;2022-07-23T15:30:30;16;16;12
55549;PMS7003;41397;49.972;18.944;2022-07-23T15:35:46;17;17;13
55549;PMS7003;41397;49.972;18.944;2022-07-23T15:40:59;14;14;9
55549;PMS7003;41397;49.972;18.944;2022-07-23T15:46:13;17;17;14
55549;PMS7003;41397;49.972;18.944;2022-07-23T15:51:27;14;14;10
55549;PMS7003;41397;49.972;18.944;2022-07-23T15:56:41;16;16;12
55549;PMS7003;41397;49.972;18.944;2022-07-23T15:58:12;8;8;8
55549;PMS7003;41397;49.972;18.944;2022-07-23T16:01:55;15;15;14
55549;PMS7003;41397;49.972;18.944;2022-07-23T16:07:09;9;9;9
55549;PMS7003;41397;49.972;18.944;2022-07-23T16:12:23;21;21;17
55549;PMS7003;41397;49.972;18.944;2022-07-23T16:17:37;20;20;15
55549;PMS7003;41397;49.972;18.944;2022-07-23T16:22:51;25;25;19
55549;PMS7003;41397;49.972;18.944;2022-07-23T16:28:04;14;14;12
55549;PMS7003;41397;49.972;18.944;2022-07-23T16:28:26;14;14;12
55549;PMS7003;41397;49.972;18.944;2022-07-23T16:33:20;16;16;15
55549;PMS7003;41397;49.972;18.944;2022-07-23T16:38:34;23;16;12
55549;PMS7003;41397;49.972;18.944;2022-07-23T16:43:49;18;18;13
55549;PMS7003;41397;49.972;18.944;2022-07-23T16:49:03;19;19;13
55549;PMS7003;41397;49.972;18.944;2022-07-23T16:54:17;12;12;11
55549;PMS7003;41397;49.972;18.944;2022-07-23T16:58:40;23;23;18
55549;PMS7003;41397;49.972;18.944;2022-07-23T16:59:32;16;16;15
55549;PMS7003;41397;49.972;18.944;2022-07-23T17:04:46;19;19;15
55549;PMS7003;41397;49.972;18.944;2022-07-23T17:10:04;23;23;20
55549;PMS7003;41397;49.972;18.944;2022-07-23T17:15:20;21;21;17
55549;PMS7003;41397;49.972;18.944;2022-07-23T17:20:37;25;25;16
55549;PMS7003;41397;49.972;18.944;2022-07-23T17:25:51;20;20;12
55549;PMS7003;41397;49.972;18.944;2022-07-23T17:28:54;22;22;17
55549;PMS7003;41397;49.972;18.944;2022-07-23T17:31:05;18;18;11
55549;PMS7003;41397;49.972;18.944;2022-07-23T17:36:19;23;23;16
55549;PMS7003;41397;49.972;18.944;2022-07-23T17:41:35;21;21;16
55549;PMS7003;41397;49.972;18.944;2022-07-23T17:46:49;22;22;15
55549;PMS7003;41397;49.972;18.944;2022-07-23T17:52:03;32;29;20
55549;PMS7003;41397;49.972;18.944;2022-07-23T17:57:18;19;19;16
55549;PMS7003;41397;49.972;18.944;2022-07-23T17:59:07;24;23;16
55549;PMS7003;41397;49.972;18.944;2022-07-23T18:02:31;24;24;18
55549;PMS7003;41397;49.972;18.944;2022-07-23T18:07:45;37;32;20
55549;PMS7003;41397;49.972;18.944;2022-07-23T18:12:58;26;24;16
55549;PMS7003;41397;49.972;18.944;2022-07-23T18:18:25;27;26;19
55549;PMS7003;41397;49.972;18.944;2022-07-23T18:23:40;26;25;20
55549;PMS7003;41397;49.972;18.944;2022-07-23T18:28:54;26;25;19
55549;PMS7003;41397;49.972;18.944;2022-07-23T18:29:21;26;25;19
55549;PMS7003;41397;49.972;18.944;2022-07-23T18:34:07;23;23;16
55549;PMS7003;41397;49.972;18.944;2022-07-23T18:39:21;30;28;22
55549;PMS7003;41397;49.972;18.944;2022-07-23T18:44:38;15;15;14
55549;PMS7003;41397;49.972;18.944;2022-07-23T18:49:53;27;25;20
55549;PMS7003;41397;49.972;18.944;2022-07-23T18:55:07;22;21;17
55549;PMS7003;41397;49.972;18.944;2022-07-23T18:59:34;24;23;17
55549;PMS7003;41397;49.972;18.944;2022-07-23T19:00:21;20;20;15
55549;PMS7003;41397;49.972;18.944;2022-07-23T19:05:35;22;22;17
55549;PMS7003;41397;49.972;18.944;2022-07-23T19:10:51;24;23;19
55549;PMS7003;41397;49.972;18.944;2022-07-23T19:16:05;23;22;17
55549;PMS7003;41397;49.972;18.944;2022-07-23T19:21:18;24;23;15
55549;PMS7003;41397;49.972;18.944;2022-07-23T19:26:32;24;24;17
55549;PMS7003;41397;49.972;18.944;2022-07-23T19:29:48;25;24;19
55549;PMS7003;41397;49.972;18.944;2022-07-23T19:31:46;38;30;21
55549;PMS7003;41397;49.972;18.944;2022-07-23T19:36:59;25;24;19
55549;PMS7003;41397;49.972;18.944;2022-07-23T19:42:13;17;17;15
55549;PMS7003;41397;49.972;18.944;2022-07-23T19:47:27;32;29;18
55549;PMS7003;41397;49.972;18.944;2022-07-23T19:52:49;65;62;40
55549;PMS7003;41397;49.972;18.944;2022-07-23T19:58:39;22;22;17
55549;PMS7003;41397;49.972;18.944;2022-07-23T20:00:07;28;27;19
55549;PMS7003;41397;49.972;18.944;2022-07-23T20:03:52;25;24;17
55549;PMS7003;41397;49.972;18.944;2022-07-23T20:09:06;31;28;20
55549;PMS7003;41397;49.972;18.944;2022-07-23T20:14:19;30;28;22
55549;PMS7003;41397;49.972;18.944;2022-07-23T20:19:33;29;27;20
55549;PMS7003;41397;49.972;18.944;2022-07-23T20:24:47;35;30;19
55549;PMS7003;41397;49.972;18.944;2022-07-23T20:30:00;33;30;20
55549;PMS7003;41397;49.972;18.944;2022-07-23T20:30:23;33;30;20
55549;PMS7003;41397;49.972;18.944;2022-07-23T20:35:14;27;26;19
55549;PMS7003;41397;49.972;18.944;2022-07-23T20:40:28;40;34;19
55549;PMS7003;41397;49.972;18.944;2022-07-23T20:45:42;39;33;22
55549;PMS7003;41397;49.972;18.944;2022-07-23T20:50:55;34;30;22
55549;PMS7003;41397;49.972;18.944;2022-07-23T20:56:09;41;35;23
55549;PMS7003;41397;49.972;18.944;2022-07-23T21:00:36;40;34;23
55549;PMS7003;41397;49.972;18.944;2022-07-23T21:01:23;38;33;21
55549;PMS7003;41397;49.972;18.944;2022-07-23T21:06:38;34;31;22
55549;PMS7003;41397;49.972;18.944;2022-07-23T21:11:52;49;41;26
55549;PMS7003;41397;49.972;18.944;2022-07-23T21:17:06;39;33;23
55549;PMS7003;41397;49.972;18.944;2022-07-23T21:22:19;35;31;21
55549;PMS7003;41397;49.972;18.944;2022-07-23T21:27:33;34;29;19
55549;PMS7003;41397;49.972;18.944;2022-07-23T21:30:51;43;37;26
55549;PMS7003;41397;49.972;18.944;2022-07-23T21:32:46;38;33;24
55549;PMS7003;41397;49.972;18.944;2022-07-23T21:38:00;48;39;25
55549;PMS7003;41397;49.972;18.944;2022-07-23T21:43:13;43;37;25
55549;PMS7003;41397;49.972;18.944;2022-07-23T21:48:27;39;34;22
55549;PMS7003;41397;49.972;18.944;2022-07-23T21:53:40;43;37;23
55549;PMS7003;41397;49.972;18.944;2022-07-23T21:58:54;45;38;26
55549;PMS7003;41397;49.972;18.944;2022-07-23T22:01:04;38;33;23
55549;PMS7003;41397;49.972;18.944;2022-07-23T22:04:07;35;31;21
55549;PMS7003;41397;49.972;18.944;2022-07-23T22:09:21;42;35;25
55549;PMS7003;41397;49.972;18.944;2022-07-23T22:14:35;38;32;22
55549;PMS7003;41397;49.972;18.944;2022-07-23T22:24:25;29;27;20
55549;PMS7003;41397;49.972;18.944;2022-07-23T22:29:39;27;25;18
55549;PMS7003;41397;49.972;18.944;2022-07-23T22:34:53;36;31;21
55549;PMS7003;41397;49.972;18.944;2022-07-23T22:40:07;30;27;20
55549;PMS7003;41397;49.972;18.944;2022-07-23T22:45:21;35;30;20
55549;PMS7003;41397;49.972;18.944;2022-07-23T22:49:25;25;23;18
55549;PMS7003;41397;49.972;18.944;2022-07-23T22:50:34;29;27;20
55549;PMS7003;41397;49.972;18.944;2022-07-23T22:55:48;24;24;17
55549;PMS7003;41397;49.972;18.944;2022-07-23T23:01:02;29;27;19
55549;PMS7003;41397;49.972;18.944;2022-07-23T23:06:15;25;25;17
55549;PMS7003;41397;49.972;18.944;2022-07-23T23:11:29;26;25;18
55549;PMS7003;41397;49.972;18.944;2022-07-23T23:16:43;22;22;17
55549;PMS7003;41397;49.972;18.944;2022-07-23T23:19:40;22;21;15
55549;PMS7003;41397;49.972;18.944;2022-07-23T23:21:56;17;17;14
55549;PMS7003;41397;49.972;18.944;2022-07-23T23:27:11;23;23;17
55549;PMS7003;41397;49.972;18.944;2022-07-23T23:32:24;14;14;12
55549;PMS7003;41397;49.972;18.944;2022-07-23T23:37:38;18;18;12
55549;PMS7003;41397;49.972;18.944;2022-07-23T23:42:55;11;11;10
55549;PMS7003;41397;49.972;18.944;2022-07-23T23:48:09;15;15;13
55549;PMS7003;41397;49.972;18.944;2022-07-23T23:49:53;11;11;10
55549;PMS7003;41397;49.972;18.944;2022-07-23T23:53:22;15;15;14
55549;PMS7003;41397;49.972;18.944;2022-07-23T23:58:36;22;22;16
